createdAt,value
2023-05-16T00:01:56.694Z,4.87
2023-05-16T00:04:24.979Z,5.33
2023-05-16T00:06:53.407Z,4.63
2023-05-16T00:09:21.855Z,5.83
2023-05-16T00:11:50.273Z,5.50
2023-05-16T00:14:20.839Z,5.27
2023-05-16T00:16:49.355Z,4.87
2023-05-16T00:19:17.667Z,5.40
2023-05-16T00:21:46.045Z,5.53
2023-05-16T00:24:14.305Z,5.47
2023-05-16T00:26:42.577Z,5.53
2023-05-16T00:29:11.110Z,5.60
2023-05-16T00:31:40.841Z,5.90
2023-05-16T00:34:09.114Z,5.33
2023-05-16T00:36:37.504Z,5.70
2023-05-16T00:39:05.762Z,5.73
2023-05-16T00:41:35.379Z,6.23
2023-05-16T00:44:04.025Z,5.90
2023-05-16T00:46:32.329Z,6.00
2023-05-16T00:49:02.277Z,6.27
2023-05-16T00:51:30.790Z,6.03
2023-05-16T00:53:59.133Z,5.70
2023-05-16T00:56:27.733Z,6.60
2023-05-16T00:58:56.351Z,6.60
2023-05-16T01:01:25.092Z,5.50
2023-05-16T01:03:54.406Z,6.23
2023-05-16T01:06:24.197Z,6.00
2023-05-16T01:08:52.453Z,6.13
2023-05-16T01:11:24.362Z,6.20
2023-05-16T01:14:07.696Z,6.40
2023-05-16T01:16:38.723Z,5.63
2023-05-16T01:19:11.672Z,6.23
2023-05-16T01:21:50.515Z,7.13
2023-05-16T01:24:24.776Z,6.50
2023-05-16T01:26:55.736Z,6.43
2023-05-16T01:29:24.131Z,6.37
2023-05-16T01:31:52.595Z,6.93
2023-05-16T01:34:21.017Z,6.30
2023-05-16T01:36:52.178Z,6.17
2023-05-16T01:39:23.123Z,6.90
2023-05-16T01:41:57.242Z,6.40
2023-05-16T01:44:30.880Z,6.70
2023-05-16T01:47:02.531Z,7.03
2023-05-16T01:49:33.120Z,7.37
2023-05-16T01:52:03.135Z,7.80
2023-05-16T01:54:32.510Z,8.27
2023-05-16T01:57:04.398Z,7.77
2023-05-16T01:59:32.711Z,8.07
2023-05-16T02:02:01.021Z,7.50
2023-05-16T02:04:29.306Z,7.63
2023-05-16T02:06:58.161Z,7.90
2023-05-16T02:09:26.531Z,8.13
2023-05-16T02:11:55.041Z,7.57
2023-05-16T02:14:25.934Z,7.77
2023-05-16T02:16:54.938Z,7.23
2023-05-16T02:19:23.430Z,7.50
2023-05-16T02:21:51.695Z,7.90
2023-05-16T02:24:20.308Z,7.60
2023-05-16T02:26:48.656Z,7.63
2023-05-16T02:29:17.430Z,7.77
2023-05-16T02:31:47.202Z,7.40
2023-05-16T02:34:16.733Z,7.60
2023-05-16T02:36:44.968Z,7.33
2023-05-16T02:39:13.281Z,7.07
2023-05-16T02:41:41.784Z,7.20
2023-05-16T02:44:10.275Z,7.43
2023-05-16T02:46:38.650Z,7.20
2023-05-16T02:49:08.652Z,7.23
2023-05-16T02:51:37.134Z,7.10
2023-05-16T02:54:05.512Z,6.80
2023-05-16T02:56:34.255Z,7.53
2023-05-16T02:59:02.508Z,6.67
2023-05-16T03:01:30.927Z,7.90
2023-05-16T03:04:00.075Z,7.17
2023-05-16T03:06:30.401Z,7.80
2023-05-16T03:09:01.045Z,6.60
2023-05-16T03:11:29.475Z,6.77
2023-05-16T03:14:01.520Z,7.20
2023-05-16T03:16:30.702Z,7.70
2023-05-16T03:18:59.413Z,7.03
2023-05-16T03:21:29.630Z,7.40
2023-05-16T03:23:58.387Z,7.23
2023-05-16T03:26:26.746Z,7.23
2023-05-16T03:28:55.522Z,6.80
2023-05-16T03:31:23.822Z,6.80
2023-05-16T03:33:52.072Z,7.13
2023-05-16T03:36:22.468Z,7.33
2023-05-16T03:38:52.100Z,7.03
2023-05-16T03:41:22.358Z,6.97
2023-05-16T03:43:51.009Z,7.03
2023-05-16T03:46:19.654Z,7.17
2023-05-16T03:48:47.998Z,7.00
2023-05-16T03:51:16.268Z,6.87
2023-05-16T03:53:44.444Z,7.00
2023-05-16T03:56:14.527Z,7.10
2023-05-16T03:58:42.766Z,7.60
2023-05-16T04:01:11.071Z,7.33
2023-05-16T04:03:39.337Z,6.97
2023-05-16T04:06:08.566Z,7.73
2023-05-16T04:08:36.889Z,6.93
2023-05-16T04:11:06.184Z,8.07
2023-05-16T04:13:35.921Z,6.77
2023-05-16T04:16:04.204Z,8.00
2023-05-16T04:18:32.550Z,8.57
2023-05-16T04:21:00.930Z,8.67
2023-05-16T04:23:29.566Z,8.03
2023-05-16T04:25:59.691Z,8.40
2023-05-16T04:28:28.611Z,8.57
2023-05-16T04:30:58.445Z,8.10
2023-05-16T04:33:26.703Z,8.50
2023-05-16T04:35:55.479Z,9.43
2023-05-16T04:38:23.718Z,10.00
2023-05-16T04:40:52.011Z,9.70
2023-05-16T04:43:20.253Z,10.10
2023-05-16T04:45:48.556Z,10.63
2023-05-16T04:48:18.278Z,11.37
2023-05-16T04:50:46.484Z,12.07
2023-05-16T04:53:15.463Z,12.50
2023-05-16T04:55:43.719Z,11.20
2023-05-16T04:58:12.495Z,12.43
2023-05-16T05:00:40.755Z,11.60
2023-05-16T05:03:09.112Z,12.50
2023-05-16T05:05:39.168Z,12.97
2023-05-16T05:08:07.567Z,12.23
2023-05-16T05:10:35.810Z,14.07
2023-05-16T05:13:04.456Z,13.70
2023-05-16T05:15:32.707Z,14.10
2023-05-16T05:18:01.097Z,13.00
2023-05-16T05:20:29.879Z,14.20
2023-05-16T05:22:59.621Z,14.30
2023-05-16T05:25:28.191Z,13.80
2023-05-16T05:27:56.672Z,14.10
2023-05-16T05:30:25.093Z,13.90
2023-05-16T05:32:54.956Z,15.23
2023-05-16T05:35:23.344Z,14.30
2023-05-16T05:37:51.559Z,15.00
2023-05-16T05:40:21.271Z,16.10
2023-05-16T05:42:49.490Z,15.73
2023-05-16T05:45:18.135Z,15.70
2023-05-16T05:47:46.745Z,15.80
2023-05-16T05:50:15.912Z,16.40
2023-05-16T05:52:44.130Z,16.00
2023-05-16T05:55:12.538Z,16.63
2023-05-16T05:57:42.162Z,15.20
2023-05-16T06:00:11.958Z,16.23
2023-05-16T06:02:40.536Z,15.57
2023-05-16T06:05:09.950Z,15.20
2023-05-16T06:07:38.297Z,15.13
2023-05-16T06:10:08.774Z,15.00
2023-05-16T06:12:37.036Z,14.77
2023-05-16T06:15:08.132Z,13.93
2023-05-16T06:17:36.451Z,14.87
2023-05-16T06:20:05.020Z,14.43
2023-05-16T06:22:33.414Z,14.30
2023-05-16T06:25:02.041Z,14.77
2023-05-16T06:27:30.563Z,14.10
2023-05-16T06:29:58.833Z,13.87
2023-05-16T06:32:28.511Z,14.43
2023-05-16T06:34:57.141Z,14.43
2023-05-16T06:37:26.245Z,13.83
2023-05-16T06:39:54.823Z,13.47
2023-05-16T06:42:23.157Z,14.43
2023-05-16T06:44:51.453Z,13.07
2023-05-16T06:47:19.814Z,14.10
2023-05-16T06:49:49.485Z,14.53
2023-05-16T06:52:17.753Z,13.97
2023-05-16T06:54:47.698Z,14.47
2023-05-16T06:57:16.556Z,14.30
2023-05-16T06:59:44.881Z,13.30
2023-05-16T07:02:13.333Z,13.67
2023-05-16T07:04:41.867Z,13.40
2023-05-16T07:07:11.613Z,13.53
2023-05-16T07:09:40.269Z,13.83
2023-05-16T07:12:08.955Z,13.40
2023-05-16T07:14:37.371Z,14.83
2023-05-16T07:17:06.265Z,14.00
2023-05-16T07:19:34.708Z,14.20
2023-05-16T07:22:03.531Z,13.93
2023-05-16T07:24:33.215Z,13.70
2023-05-16T07:27:01.500Z,13.50
2023-05-16T07:29:30.467Z,14.37
2023-05-16T07:31:58.785Z,13.60
2023-05-16T07:34:27.266Z,13.40
2023-05-16T07:36:55.927Z,13.63
2023-05-16T07:39:24.203Z,14.13
2023-05-16T07:41:53.948Z,15.13
2023-05-16T07:44:22.335Z,14.63
2023-05-16T07:46:50.852Z,15.33
2023-05-16T07:49:19.353Z,14.07
2023-05-16T07:51:47.962Z,14.93
2023-05-16T07:54:16.328Z,15.27
2023-05-16T07:56:44.900Z,14.63
2023-05-16T07:59:14.699Z,15.40
2023-05-16T08:01:43.083Z,15.83
2023-05-16T08:04:11.702Z,15.67
2023-05-16T08:06:40.033Z,17.00
2023-05-16T08:09:08.845Z,17.97
2023-05-16T08:11:37.184Z,18.23
2023-05-16T08:14:05.549Z,19.57
2023-05-16T08:16:35.533Z,20.77
2023-05-16T08:19:04.284Z,20.47
2023-05-16T08:21:33.109Z,21.23
2023-05-16T08:24:01.438Z,22.03
2023-05-16T08:26:29.750Z,22.77
2023-05-16T08:28:58.202Z,22.10
2023-05-16T08:31:26.936Z,21.93
2023-05-16T08:33:56.930Z,22.00
2023-05-16T08:36:26.261Z,24.13
2023-05-16T08:38:54.631Z,23.03
2023-05-16T08:41:23.155Z,23.40
2023-05-16T08:43:51.543Z,23.30
2023-05-16T08:46:21.448Z,24.40
2023-05-16T08:48:51.167Z,23.30
2023-05-16T08:51:20.997Z,25.87
2023-05-16T08:53:52.424Z,24.93
2023-05-16T08:56:22.486Z,24.07
2023-05-16T08:58:50.838Z,25.70
2023-05-16T09:01:19.215Z,26.07
2023-05-16T09:03:47.630Z,25.27
2023-05-16T09:06:16.136Z,24.73
2023-05-16T09:08:48.143Z,25.10
2023-05-16T09:11:16.502Z,24.53
2023-05-16T09:13:45.286Z,23.07
2023-05-16T09:16:14.061Z,23.07
2023-05-16T09:18:42.577Z,21.80
2023-05-16T09:21:11.349Z,22.00
2023-05-16T09:23:39.658Z,23.40
2023-05-16T09:26:09.652Z,23.27
2023-05-16T09:28:39.075Z,21.70
2023-05-16T09:31:21.075Z,21.20
2023-05-16T09:33:49.739Z,19.73
2023-05-16T09:36:18.109Z,20.67
2023-05-16T09:38:46.721Z,19.03
2023-05-16T09:41:16.809Z,18.87
2023-05-16T09:43:46.813Z,18.57
2023-05-16T09:46:15.709Z,19.47
2023-05-16T09:48:46.360Z,19.43
2023-05-16T09:51:14.874Z,21.30
2023-05-16T09:53:43.366Z,19.23
2023-05-16T09:56:12.421Z,20.37
2023-05-16T09:58:42.693Z,19.47
2023-05-16T10:01:15.707Z,19.73
2023-05-16T10:03:44.530Z,18.40
2023-05-16T10:06:13.780Z,18.57
2023-05-16T10:08:43.783Z,18.77
2023-05-16T10:11:12.170Z,16.73
2023-05-16T10:13:41.976Z,16.13
2023-05-16T10:16:12.222Z,15.37
2023-05-16T10:18:41.431Z,14.43
2023-05-16T10:21:12.041Z,14.07
2023-05-16T10:23:42.960Z,14.77
2023-05-16T10:26:11.608Z,13.57
2023-05-16T10:28:41.483Z,13.43
2023-05-16T10:31:10.216Z,12.37
2023-05-16T10:33:38.913Z,12.93
2023-05-16T10:36:08.015Z,12.20
2023-05-16T10:38:36.348Z,12.40
2023-05-16T10:41:04.703Z,11.43
2023-05-16T10:43:33.735Z,11.83
2023-05-16T10:46:06.443Z,11.27
2023-05-16T10:48:35.454Z,11.33
2023-05-16T10:51:04.426Z,10.93
2023-05-16T10:53:33.580Z,11.77
2023-05-16T10:56:12.273Z,10.73
2023-05-16T10:58:44.587Z,10.87
2023-05-16T11:01:24.884Z,10.70
2023-05-16T11:04:17.135Z,10.37
2023-05-16T11:06:47.025Z,11.77
2023-05-16T11:09:23.669Z,10.43
2023-05-16T11:12:02.888Z,10.77
2023-05-16T11:14:37.821Z,10.53
2023-05-16T11:17:10.835Z,11.07
2023-05-16T11:19:43.634Z,10.87
2023-05-16T11:22:23.140Z,10.97
2023-05-16T11:24:59.922Z,10.30
2023-05-16T11:27:30.064Z,10.50
2023-05-16T11:30:03.806Z,10.50
2023-05-16T11:32:35.706Z,9.87
2023-05-16T11:35:05.218Z,9.90
2023-05-16T11:37:33.510Z,10.50
2023-05-16T11:40:02.531Z,14.03
2023-05-16T11:42:34.020Z,12.30
2023-05-16T11:45:07.306Z,9.60
2023-05-16T11:47:37.991Z,8.53
2023-05-16T11:50:06.925Z,8.07
2023-05-16T11:52:35.285Z,8.67
2023-05-16T11:55:04.803Z,8.07
2023-05-16T11:57:33.387Z,7.90
2023-05-16T12:00:06.601Z,8.33
2023-05-16T12:02:36.549Z,7.70
2023-05-16T12:05:10.233Z,8.17
2023-05-16T12:07:38.950Z,8.73
2023-05-16T12:10:08.898Z,8.60
2023-05-16T12:12:37.285Z,8.53
2023-05-16T12:15:06.615Z,8.27
2023-05-16T12:17:36.406Z,8.07
2023-05-16T12:20:06.298Z,7.47
2023-05-16T12:22:34.934Z,8.47
2023-05-16T12:25:24.476Z,8.10
2023-05-16T12:27:55.357Z,8.33
2023-05-16T12:30:25.898Z,7.60
2023-05-16T12:32:59.071Z,8.30
2023-05-16T12:35:28.204Z,7.43
2023-05-16T12:37:56.493Z,6.97
2023-05-16T12:40:24.769Z,7.77
2023-05-16T12:42:53.343Z,7.00
2023-05-16T12:45:21.611Z,6.70
2023-05-16T12:47:50.115Z,6.60
2023-05-16T12:50:20.282Z,6.27
2023-05-16T12:52:50.681Z,6.60
2023-05-16T12:55:19.082Z,6.80
2023-05-16T12:57:47.847Z,6.13
2023-05-16T13:00:18.794Z,6.77
2023-05-16T13:02:47.664Z,6.83
2023-05-16T13:05:16.154Z,6.57
2023-05-16T13:07:45.918Z,6.17
2023-05-16T13:10:14.262Z,6.37
2023-05-16T13:12:42.614Z,5.40
2023-05-16T13:15:11.953Z,5.47
2023-05-16T13:17:40.703Z,4.70
2023-05-16T13:20:10.480Z,5.30
2023-05-16T13:22:38.994Z,5.73
2023-05-16T13:25:09.413Z,5.63
2023-05-16T13:27:37.801Z,5.80
2023-05-16T13:30:10.101Z,6.00
2023-05-16T13:32:38.459Z,6.40
2023-05-16T13:35:07.549Z,5.97
2023-05-16T13:37:36.085Z,5.30
2023-05-16T13:40:05.536Z,5.63
2023-05-16T13:42:36.350Z,5.97
2023-05-16T13:45:05.066Z,6.90
2023-05-16T13:47:33.646Z,6.70
2023-05-16T13:50:06.094Z,5.67
2023-05-16T13:52:35.907Z,6.03
2023-05-16T13:55:06.759Z,6.60
2023-05-16T13:57:36.687Z,6.27
2023-05-16T14:00:35.447Z,6.27
2023-05-16T14:03:00.868Z,6.07
2023-05-16T14:05:29.187Z,6.40
2023-05-16T14:07:57.562Z,8.97
2023-05-16T14:10:26.666Z,7.07
2023-05-16T14:12:56.634Z,6.63
2023-05-16T14:15:25.076Z,6.20
2023-05-16T14:17:53.954Z,6.40
2023-05-16T14:20:23.035Z,6.77
2023-05-16T14:22:51.351Z,7.40
2023-05-16T14:25:19.873Z,7.10
2023-05-16T14:27:51.037Z,7.73
2023-05-16T14:30:20.803Z,8.13
2023-05-16T14:32:49.106Z,7.67
2023-05-16T14:35:17.608Z,8.67
2023-05-16T14:37:46.476Z,6.83
2023-05-16T14:40:14.838Z,7.23
2023-05-16T14:42:43.096Z,6.20
2023-05-16T14:45:12.473Z,5.70
2023-05-16T14:47:42.483Z,5.97
2023-05-16T14:50:11.469Z,6.27
2023-05-16T14:52:41.222Z,5.47
2023-05-16T14:55:09.636Z,5.90
2023-05-16T14:57:38.295Z,5.23
2023-05-16T15:00:07.903Z,5.00
2023-05-16T15:02:36.222Z,4.97
2023-05-16T15:05:07.558Z,5.87
2023-05-16T15:07:35.926Z,6.40
2023-05-16T15:10:04.285Z,5.80
2023-05-16T15:12:32.563Z,5.83
2023-05-16T15:15:00.870Z,6.17
2023-05-16T15:17:29.215Z,4.90
2023-05-16T15:19:57.925Z,4.93
2023-05-16T15:22:30.089Z,5.00
2023-05-16T15:24:59.077Z,6.20
2023-05-16T15:27:27.437Z,6.00
2023-05-16T15:29:55.884Z,7.03
2023-05-16T15:32:24.353Z,6.93
2023-05-16T15:34:53.152Z,6.13
2023-05-16T15:37:22.324Z,6.20
2023-05-16T15:39:51.991Z,6.27
2023-05-16T15:42:21.799Z,6.23
2023-05-16T15:44:50.137Z,5.30
2023-05-16T15:47:18.740Z,5.40
2023-05-16T15:49:47.125Z,5.83
2023-05-16T15:52:15.476Z,4.50
2023-05-16T15:54:43.810Z,3.73
2023-05-16T15:57:13.679Z,3.93
2023-05-16T15:59:41.995Z,3.30
2023-05-16T16:02:10.339Z,4.03
2023-05-16T16:04:38.721Z,3.83
2023-05-16T16:07:07.073Z,3.40
2023-05-16T16:09:35.355Z,4.00
2023-05-16T16:12:03.679Z,3.90
2023-05-16T16:14:33.501Z,3.77
2023-05-16T16:17:02.119Z,3.73
2023-05-16T16:19:32.546Z,4.17
2023-05-16T16:22:01.294Z,4.20
2023-05-16T16:24:29.733Z,4.10
2023-05-16T16:26:58.013Z,4.50
2023-05-16T16:29:27.385Z,3.77
2023-05-16T16:31:57.301Z,3.80
2023-05-16T16:34:25.698Z,4.63
2023-05-16T16:36:53.987Z,4.20
2023-05-16T16:39:22.661Z,4.33
2023-05-16T16:41:51.057Z,4.03
2023-05-16T16:44:20.963Z,3.77
2023-05-16T16:46:51.334Z,4.20
2023-05-16T16:49:21.075Z,4.43
2023-05-16T16:51:50.107Z,5.63
2023-05-16T16:54:18.497Z,7.97
2023-05-16T16:56:47.809Z,4.73
2023-05-16T16:59:16.073Z,4.40
2023-05-16T17:01:44.556Z,4.27
2023-05-16T17:04:13.242Z,4.57
2023-05-16T17:06:43.175Z,3.90
2023-05-16T17:09:14.049Z,4.10
2023-05-16T17:11:44.975Z,4.23
2023-05-16T17:14:14.227Z,4.40
2023-05-16T17:16:42.576Z,5.27
2023-05-16T17:19:10.949Z,4.07
2023-05-16T17:21:40.711Z,4.97
2023-05-16T17:24:11.010Z,4.10
2023-05-16T17:26:39.268Z,4.00
2023-05-16T17:29:07.615Z,3.80
2023-05-16T17:31:36.418Z,4.90
2023-05-16T17:34:04.688Z,3.57
2023-05-16T17:36:33.041Z,3.90
2023-05-16T17:39:01.666Z,3.90
2023-05-16T17:41:31.386Z,3.53
2023-05-16T17:43:59.696Z,3.40
2023-05-16T17:46:28.042Z,3.90
2023-05-16T17:48:56.310Z,4.57
2023-05-16T17:51:24.961Z,5.97
2023-05-16T17:53:53.696Z,5.53
2023-05-16T17:56:22.599Z,4.80
2023-05-16T17:58:53.500Z,3.90
2023-05-16T18:01:21.813Z,3.20
2023-05-16T18:03:50.109Z,3.60
2023-05-16T18:06:18.573Z,3.53
2023-05-16T18:08:47.472Z,4.47
2023-05-16T18:11:15.867Z,4.73
2023-05-16T18:13:44.144Z,6.07
2023-05-16T18:16:13.845Z,8.40
2023-05-16T18:18:42.746Z,7.57
2023-05-16T18:21:11.240Z,6.80
2023-05-16T18:23:39.528Z,5.73
2023-05-16T18:58:08.352Z,2.70
2023-05-16T19:00:38.562Z,2.97
2023-05-16T19:03:06.901Z,2.93
2023-05-16T19:05:35.408Z,2.93
2023-05-16T19:08:03.808Z,3.33
2023-05-16T19:10:32.482Z,3.87
2023-05-16T19:13:07.117Z,3.77
2023-05-16T19:15:36.948Z,4.37
2023-05-16T19:18:06.467Z,3.67
2023-05-16T19:20:35.403Z,3.57
2023-05-16T19:23:03.676Z,3.67
2023-05-16T19:25:32.614Z,4.20
2023-05-16T19:28:01.298Z,4.13
2023-05-16T19:30:29.679Z,3.47
2023-05-16T19:32:59.596Z,2.83
2023-05-16T19:35:29.242Z,3.00
2023-05-16T19:37:58.084Z,3.03
2023-05-16T19:40:26.643Z,2.60
2023-05-16T19:42:54.941Z,3.47
2023-05-16T19:45:23.388Z,3.30
2023-05-16T19:47:52.264Z,3.10
2023-05-16T19:50:23.052Z,3.50
2023-05-16T19:52:51.872Z,3.43
2023-05-16T19:55:20.902Z,3.13
2023-05-16T19:57:52.487Z,2.20
2023-05-16T20:00:21.560Z,2.47
2023-05-16T20:02:50.242Z,2.53
2023-05-16T20:05:22.992Z,2.30
2023-05-16T20:07:54.631Z,2.60
2023-05-16T20:10:23.290Z,4.80
2023-05-16T20:12:51.901Z,2.60
2023-05-16T20:15:20.234Z,2.37
2023-05-16T20:17:48.904Z,2.70
2023-05-16T20:20:17.229Z,2.30
2023-05-16T20:22:46.068Z,2.27
2023-05-16T20:25:15.778Z,2.33
2023-05-16T20:27:44.135Z,2.10
2023-05-16T20:30:13.452Z,2.57
2023-05-16T20:32:41.889Z,2.20
2023-05-16T20:35:11.462Z,2.33
2023-05-16T20:37:41.299Z,1.70
2023-05-16T20:40:10.836Z,2.33
2023-05-16T20:42:40.600Z,2.20
2023-05-16T20:45:09.931Z,2.30
2023-05-16T20:47:38.259Z,2.10
2023-05-16T20:50:08.410Z,2.23
2023-05-16T20:52:36.703Z,2.00
2023-05-16T20:55:05.215Z,1.90
2023-05-16T20:57:34.114Z,2.00
2023-05-16T21:00:03.923Z,2.00
2023-05-16T21:02:32.593Z,1.90
2023-05-16T21:05:14.505Z,1.93
2023-05-16T21:07:49.587Z,1.70
2023-05-16T21:10:18.053Z,1.87
2023-05-16T21:12:46.291Z,2.00
2023-05-16T21:15:16.006Z,2.20
2023-05-16T21:17:44.717Z,2.13
2023-05-16T21:20:13.732Z,2.20
2023-05-16T21:22:42.638Z,1.90
2023-05-16T21:25:11.291Z,2.00
2023-05-16T21:27:40.030Z,2.00
2023-05-16T21:30:09.746Z,1.97
2023-05-16T21:32:39.430Z,2.00
2023-05-16T21:39:08.834Z,2.00
2023-05-16T21:41:37.166Z,1.43
2023-05-16T21:44:06.469Z,2.00
2023-05-16T21:46:34.765Z,2.10
2023-05-16T21:49:04.947Z,1.90
2023-05-16T21:51:33.280Z,2.30
2023-05-16T21:54:03.217Z,2.30
2023-05-16T21:56:49.678Z,1.80
2023-05-16T21:59:18.263Z,1.90
2023-05-16T22:01:46.565Z,1.90
2023-05-16T22:04:16.584Z,2.13
2023-05-16T22:06:45.036Z,1.50
2023-05-16T22:09:13.345Z,1.70
2023-05-16T22:11:41.692Z,1.90
2023-05-16T22:14:10.241Z,1.90
2023-05-16T22:16:39.039Z,1.80
2023-05-16T22:19:09.075Z,1.50
2023-05-16T22:24:57.218Z,1.70
2023-05-16T22:27:25.828Z,1.70
2023-05-16T22:29:54.434Z,1.67
2023-05-16T22:32:23.091Z,1.60
2023-05-16T22:38:17.024Z,1.43
2023-05-16T22:40:46.407Z,1.80
2023-05-16T22:43:14.720Z,1.17
2023-05-16T22:45:43.213Z,2.20
2023-05-16T22:48:11.786Z,1.73
2023-05-16T22:50:40.218Z,1.60
2023-05-16T22:53:08.796Z,2.00
2023-05-16T22:55:38.962Z,1.83
2023-05-16T22:58:07.238Z,1.80
2023-05-16T23:00:35.568Z,2.00
2023-05-16T23:03:04.380Z,1.70
2023-05-16T23:05:32.801Z,1.93
2023-05-16T23:08:01.315Z,1.60
2023-05-16T23:10:29.654Z,1.80
2023-05-16T23:12:59.694Z,1.87
2023-05-16T23:15:28.141Z,2.07
2023-05-16T23:17:56.767Z,1.63
2023-05-16T23:20:25.201Z,1.73
2023-05-16T23:22:54.038Z,1.93
2023-05-16T23:25:22.499Z,2.00
2023-05-16T23:27:50.801Z,1.40
2023-05-16T23:30:20.732Z,1.60
2023-05-16T23:32:49.021Z,2.00
2023-05-16T23:35:17.548Z,2.63
2023-05-16T23:37:46.285Z,2.10
2023-05-16T23:40:14.748Z,1.90
2023-05-16T23:42:43.142Z,1.90
2023-05-16T23:45:12.616Z,2.10
2023-05-16T23:47:42.458Z,1.87
2023-05-16T23:50:11.736Z,1.73
2023-05-16T23:52:40.333Z,1.40
2023-05-16T23:55:09.550Z,1.80
2023-05-16T23:57:38.680Z,2.10
